createdAt,value
2022-08-30T00:02:04.625Z,98406.03
2022-08-30T00:05:10.917Z,98391.44
2022-08-30T00:08:15.590Z,98403.13
2022-08-30T00:11:22.167Z,98209.56
2022-08-30T00:14:27.399Z,98399.25
2022-08-30T00:17:30.605Z,98381.13
2022-08-30T00:20:35.699Z,98402.69
2022-08-30T00:23:41.133Z,98408.59
2022-08-30T00:26:44.298Z,98392.16
2022-08-30T00:29:47.849Z,98410.84
2022-08-30T00:32:51.227Z,98411.75
2022-08-30T00:35:54.411Z,98417.50
2022-08-30T00:38:58.964Z,98419.41
2022-08-30T00:42:02.276Z,98373.53
2022-08-30T00:50:17.979Z,98410.69
2022-08-30T00:53:24.674Z,98406.84
2022-08-30T00:56:30.689Z,98404.78
2022-08-30T00:59:35.173Z,98404.38
2022-08-30T01:02:38.850Z,98398.63
2022-08-30T01:05:42.876Z,98408.44
2022-08-30T01:08:48.023Z,98401.09
2022-08-30T01:11:53.794Z,98414.13
2022-08-30T01:14:57.916Z,98407.06
2022-08-30T01:18:01.536Z,98388.66
2022-08-30T01:21:10.726Z,98420.19
2022-08-30T01:24:15.812Z,98415.63
2022-08-30T01:27:21.948Z,98386.91
2022-08-30T01:30:25.421Z,98399.88
2022-08-30T01:33:28.904Z,98405.94
2022-08-30T01:36:32.837Z,98407.56
2022-08-30T01:39:37.304Z,98402.22
2022-08-30T01:42:40.832Z,98245.72
2022-08-30T01:45:44.485Z,98414.56
2022-08-30T01:48:54.015Z,98417.91
2022-08-30T01:52:00.986Z,98398.50
2022-08-30T01:55:07.732Z,98414.22
2022-08-30T01:58:11.362Z,98408.94
2022-08-30T02:01:17.597Z,98410.34
2022-08-30T02:04:21.089Z,98411.72
2022-08-30T02:07:25.545Z,98414.63
2022-08-30T02:10:30.295Z,98409.81
2022-08-30T02:13:34.134Z,98408.19
2022-08-30T02:16:37.351Z,98406.22
2022-08-30T02:19:41.236Z,98402.69
2022-08-30T02:22:49.371Z,98405.38
2022-08-30T02:25:54.859Z,98402.72
2022-08-30T02:28:59.069Z,98397.66
2022-08-30T02:32:02.348Z,98405.88
2022-08-30T02:35:06.697Z,98405.00
2022-08-30T02:38:10.114Z,98399.88
2022-08-30T02:41:15.304Z,98397.31
2022-08-30T02:44:18.705Z,98403.88
2022-08-30T02:47:21.852Z,98401.50
2022-08-30T02:50:25.528Z,98388.56
2022-08-30T02:53:28.771Z,98398.22
2022-08-30T02:56:34.529Z,98400.47
2022-08-30T02:59:41.702Z,98399.56
2022-08-30T03:02:45.056Z,98394.22
2022-08-30T03:05:48.815Z,98391.91
2022-08-30T03:08:52.034Z,98401.50
2022-08-30T03:11:56.579Z,98406.53
2022-08-30T03:15:00.536Z,98400.97
2022-08-30T03:18:04.274Z,98396.84
2022-08-30T03:21:11.748Z,98369.50
2022-08-30T03:24:14.922Z,98403.25
2022-08-30T03:27:19.515Z,98407.44
2022-08-30T03:34:26.209Z,98411.97
2022-08-30T03:37:29.616Z,98417.00
2022-08-30T03:40:33.045Z,98412.41
2022-08-30T03:43:36.957Z,98409.56
2022-08-30T03:46:40.781Z,98376.78
2022-08-30T03:49:45.325Z,98416.38
2022-08-30T03:52:48.935Z,98418.94
2022-08-30T03:55:52.158Z,98425.31
2022-08-30T03:58:55.665Z,98422.56
2022-08-30T04:01:59.757Z,98423.56
2022-08-30T04:05:05.275Z,98424.03
2022-08-30T04:08:08.644Z,98415.69
2022-08-30T04:11:11.920Z,98414.19
2022-08-30T04:14:15.158Z,98427.84
2022-08-30T04:17:18.363Z,98428.19
2022-08-30T04:20:22.920Z,98425.22
2022-08-30T04:23:29.120Z,98419.50
2022-08-30T04:26:32.271Z,98427.13
2022-08-30T04:29:35.977Z,98434.06
2022-08-30T04:32:39.398Z,98438.81
2022-08-30T04:35:45.552Z,98432.69
2022-08-30T04:38:48.775Z,98437.75
2022-08-30T04:41:51.969Z,98436.69
2022-08-30T04:44:55.286Z,98435.59
2022-08-30T04:47:58.558Z,98431.31
2022-08-30T04:51:04.754Z,98444.22
2022-08-30T04:54:08.155Z,98445.94
2022-08-30T04:57:11.773Z,98449.75
2022-08-30T05:00:16.091Z,98446.13
2022-08-30T05:03:19.459Z,98448.41
2022-08-30T05:06:25.148Z,98453.31
2022-08-30T05:09:28.290Z,98451.00
2022-08-30T05:12:31.613Z,98449.03
2022-08-30T05:15:35.186Z,98458.13
2022-08-30T05:18:38.705Z,98443.72
2022-08-30T05:21:43.196Z,98444.53
2022-08-30T05:24:46.441Z,98459.44
2022-08-30T05:27:49.834Z,98462.50
2022-08-30T05:30:52.976Z,98456.91
2022-08-30T05:33:56.917Z,98452.31
2022-08-30T05:37:02.741Z,98442.63
2022-08-30T05:40:11.100Z,98415.84
2022-08-30T05:43:15.237Z,98436.34
2022-08-30T05:46:19.665Z,98424.94
2022-08-30T05:49:23.683Z,98429.16
2022-08-30T05:52:28.523Z,98429.47
2022-08-30T05:55:32.275Z,98427.81
2022-08-30T05:58:35.586Z,98435.50
2022-08-30T06:01:40.860Z,98435.97
2022-08-30T06:04:44.586Z,98413.00
2022-08-30T06:07:49.924Z,98413.91
2022-08-30T06:10:53.685Z,98408.78
2022-08-30T06:13:57.632Z,98407.94
2022-08-30T06:17:00.911Z,98406.28
2022-08-30T06:20:04.538Z,98407.25
2022-08-30T06:23:09.258Z,98407.28
2022-08-30T06:26:13.939Z,98407.59
2022-08-30T06:29:21.789Z,98402.69
2022-08-30T06:32:25.120Z,98404.88
2022-08-30T06:35:32.688Z,98411.84
2022-08-30T06:38:40.581Z,98405.78
2022-08-30T06:41:44.105Z,98395.22
2022-08-30T06:45:20.540Z,98401.41
2022-08-30T06:48:23.982Z,98368.63
2022-08-30T06:51:31.439Z,98394.47
2022-08-30T06:54:36.049Z,98394.06
2022-08-30T06:57:40.318Z,98390.69
2022-08-30T07:00:46.724Z,98395.97
2022-08-30T07:03:50.209Z,98392.94
2022-08-30T07:06:53.611Z,98396.94
2022-08-30T07:09:58.339Z,98388.81
2022-08-30T07:13:01.738Z,98398.69
2022-08-30T07:16:11.641Z,98387.78
2022-08-30T07:19:20.578Z,98391.59
2022-08-30T07:22:24.826Z,98384.84
2022-08-30T07:25:29.332Z,98386.22
2022-08-30T07:28:33.092Z,98393.72
2022-08-30T07:31:37.718Z,98394.69
2022-08-30T07:34:41.647Z,98394.69
2022-08-30T07:37:44.799Z,98386.47
2022-08-30T07:40:49.744Z,98359.81
2022-08-30T07:43:53.474Z,98387.94
2022-08-30T07:46:57.832Z,98390.69
2022-08-30T07:50:01.269Z,98393.34
2022-08-30T07:53:07.862Z,98388.59
2022-08-30T07:56:13.983Z,98394.69
2022-08-30T07:59:17.236Z,98396.97
2022-08-30T08:02:21.087Z,98402.03
2022-08-30T08:05:25.020Z,98396.41
2022-08-30T08:08:29.022Z,98401.00
2022-08-30T08:11:35.095Z,98398.25
2022-08-30T08:14:39.430Z,98401.41
2022-08-30T08:17:42.592Z,98395.03
2022-08-30T08:20:45.760Z,98390.91
2022-08-30T08:23:48.990Z,98388.53
2022-08-30T08:26:54.669Z,98391.00
2022-08-30T08:29:57.957Z,98391.69
2022-08-30T08:33:01.710Z,98389.59
2022-08-30T08:36:08.784Z,98382.47
2022-08-30T08:39:12.884Z,98387.47
2022-08-30T08:42:25.203Z,98384.25
2022-08-30T08:45:42.090Z,98388.03
2022-08-30T08:49:00.736Z,98386.22
2022-08-30T08:52:22.624Z,98384.81
2022-08-30T08:55:27.265Z,98392.38
2022-08-30T08:58:39.692Z,98366.19
2022-08-30T09:01:43.083Z,98387.88
2022-08-30T09:04:46.738Z,98388.44
2022-08-30T09:07:53.542Z,98327.88
2022-08-30T09:11:04.866Z,98371.81
2022-08-30T09:14:13.987Z,98383.75
2022-08-30T09:17:18.976Z,98389.31
2022-08-30T09:20:29.114Z,98381.84
2022-08-30T09:23:32.593Z,98385.44
2022-08-30T09:26:38.165Z,98389.50
2022-08-30T09:29:51.865Z,98347.34
2022-08-30T09:34:24.960Z,98385.22
2022-08-30T09:37:36.745Z,98293.69
2022-08-30T09:40:43.157Z,98377.22
2022-08-30T09:43:46.659Z,98370.84
2022-08-30T09:46:52.941Z,98350.69
2022-08-30T09:50:06.826Z,98364.56
2022-08-30T09:53:23.365Z,98369.44
2022-08-30T09:56:34.740Z,98352.72
2022-08-30T09:59:46.953Z,98366.59
2022-08-30T10:03:05.891Z,98360.00
2022-08-30T10:06:23.040Z,98361.38
2022-08-30T10:09:34.711Z,98356.53
2022-08-30T10:12:52.520Z,98355.56
2022-08-30T10:16:00.900Z,98354.09
2022-08-30T10:19:17.184Z,98329.47
2022-08-30T10:22:29.045Z,98344.88
2022-08-30T10:25:36.706Z,98325.66
2022-08-30T10:28:43.085Z,98338.31
2022-08-30T10:31:54.350Z,98334.63
2022-08-30T10:35:02.785Z,98329.13
2022-08-30T10:38:13.531Z,98326.66
2022-08-30T10:41:25.887Z,98325.22
2022-08-30T10:44:32.471Z,98312.53
2022-08-30T10:47:41.306Z,98308.38
2022-08-30T10:50:49.669Z,98311.81
2022-08-30T10:54:00.069Z,98307.03
2022-08-30T10:57:03.334Z,98309.03
2022-08-30T11:00:10.345Z,98304.00
2022-08-30T11:03:42.425Z,98308.16
2022-08-30T11:06:54.984Z,98299.81
2022-08-30T11:10:21.138Z,98301.53
2022-08-30T11:13:27.113Z,98295.38
2022-08-30T11:16:40.098Z,98296.94
2022-08-30T11:19:43.493Z,98305.53
2022-08-30T11:23:21.056Z,98289.34
2022-08-30T11:26:58.180Z,98274.56
2022-08-30T11:30:39.887Z,98292.69
2022-08-30T11:33:49.290Z,98278.41
2022-08-30T11:37:04.645Z,98286.81
2022-08-30T11:40:49.691Z,98265.75
2022-08-30T11:43:57.337Z,98281.38
2022-08-30T11:47:02.532Z,98269.06
2022-08-30T11:50:14.123Z,98282.25
2022-08-30T11:53:26.413Z,98286.97
2022-08-30T11:56:43.065Z,98277.56
2022-08-30T12:00:01.125Z,98231.41
2022-08-30T12:03:07.131Z,98286.81
2022-08-30T12:06:12.044Z,98282.28
2022-08-30T12:10:05.207Z,98277.19
2022-08-30T12:13:09.854Z,98281.84
2022-08-30T12:16:19.894Z,98269.94
2022-08-30T12:19:23.739Z,98274.09
2022-08-30T12:22:30.451Z,98270.72
2022-08-30T12:25:35.335Z,98265.09
2022-08-30T12:28:42.130Z,98244.84
2022-08-30T12:31:52.538Z,98263.13
2022-08-30T12:34:57.793Z,98244.13
2022-08-30T12:38:05.837Z,98257.31
2022-08-30T12:41:09.667Z,98254.00
2022-08-30T12:44:17.628Z,98249.56
2022-08-30T12:47:28.347Z,98245.22
2022-08-30T12:50:35.341Z,98237.75
2022-08-30T12:53:44.369Z,98229.56
2022-08-30T12:56:56.538Z,98248.47
2022-08-30T13:00:02.487Z,98234.09
2022-08-30T13:03:30.025Z,98239.41
2022-08-30T13:06:39.999Z,98248.25
2022-08-30T13:09:44.810Z,98231.31
2022-08-30T13:13:03.389Z,98232.75
2022-08-30T13:16:22.665Z,98228.78
2022-08-30T13:19:33.628Z,98244.28
2022-08-30T13:22:38.940Z,98236.25
2022-08-30T13:25:42.138Z,98232.59
2022-08-30T13:28:51.965Z,98230.25
2022-08-30T13:31:55.641Z,98192.44
2022-08-30T13:35:00.252Z,98225.13
2022-08-30T13:38:04.155Z,98218.50
2022-08-30T13:41:08.027Z,98206.38
2022-08-30T13:44:15.910Z,98222.31
2022-08-30T13:47:36.972Z,98214.19
2022-08-30T13:50:43.012Z,98215.34
2022-08-30T13:53:54.212Z,98210.53
2022-08-30T13:56:58.362Z,98209.72
2022-08-30T14:00:01.849Z,98193.59
2022-08-30T14:03:19.358Z,98177.84
2022-08-30T14:06:33.083Z,98197.41
2022-08-30T14:09:38.089Z,98193.63
2022-08-30T14:13:04.765Z,98197.06
2022-08-30T14:19:31.655Z,98185.81
2022-08-30T14:22:36.460Z,98183.84
2022-08-30T14:25:41.138Z,98176.34
2022-08-30T14:28:44.902Z,98129.91
2022-08-30T14:31:49.525Z,98181.66
2022-08-30T14:34:53.472Z,98175.84
2022-08-30T14:37:58.503Z,98177.00
2022-08-30T14:41:02.147Z,98168.53
2022-08-30T14:44:05.518Z,98171.19
2022-08-30T14:47:10.394Z,98163.22
2022-08-30T14:50:14.447Z,98154.97
2022-08-30T14:53:19.294Z,98158.78
2022-08-30T14:56:24.154Z,98158.44
2022-08-30T14:59:28.965Z,98157.94
2022-08-30T15:02:33.404Z,98157.84
2022-08-30T15:05:37.207Z,98135.69
2022-08-30T15:08:41.855Z,98146.38
2022-08-30T15:11:51.879Z,98145.38
2022-08-30T15:14:55.122Z,98150.38
2022-08-30T15:17:58.433Z,98134.59
2022-08-30T15:21:01.609Z,98140.25
2022-08-30T15:24:09.184Z,98139.56
2022-08-30T15:27:12.585Z,98130.56
2022-08-30T15:34:26.202Z,98118.72
2022-08-30T15:37:31.343Z,98116.25
2022-08-30T15:40:35.934Z,98113.44
2022-08-30T15:43:40.702Z,98119.78
2022-08-30T15:46:46.463Z,98108.63
2022-08-30T15:49:57.165Z,98110.66
2022-08-30T15:53:02.045Z,98055.41
2022-08-30T15:56:05.707Z,98109.13
2022-08-30T15:59:09.606Z,98101.16
2022-08-30T16:02:13.050Z,98100.66
2022-08-30T16:05:18.209Z,98101.16
2022-08-30T16:08:22.762Z,98111.47
2022-08-30T16:11:28.448Z,98100.66
2022-08-30T16:14:33.041Z,98104.97
2022-08-30T16:17:36.918Z,98094.34
2022-08-30T16:20:45.409Z,98105.63
2022-08-30T16:23:49.668Z,98097.84
2022-08-30T16:26:53.420Z,98092.00
2022-08-30T16:29:57.564Z,98095.56
2022-08-30T16:33:00.677Z,98067.50
2022-08-30T16:36:06.093Z,98092.41
2022-08-30T16:39:12.673Z,98090.91
2022-08-30T16:42:20.876Z,98088.41
2022-08-30T16:45:24.800Z,98072.13
2022-08-30T16:48:28.566Z,98088.88
2022-08-30T16:51:34.960Z,98089.22
2022-08-30T16:54:38.228Z,98085.72
2022-08-30T16:57:41.665Z,98079.91
2022-08-30T17:00:51.656Z,98080.91
2022-08-30T17:03:55.100Z,98069.59
2022-08-30T17:07:02.104Z,98019.16
2022-08-30T17:10:06.270Z,98070.94
2022-08-30T17:13:12.341Z,98066.06
2022-08-30T17:16:16.312Z,98068.00
2022-08-30T17:19:28.538Z,98073.81
2022-08-30T17:22:34.126Z,98076.69
2022-08-30T17:25:38.757Z,98078.78
2022-08-30T17:28:44.641Z,98080.06
2022-08-30T17:31:50.955Z,98080.03
2022-08-30T17:35:03.972Z,98080.41
2022-08-30T17:38:10.871Z,98038.50
2022-08-30T17:41:16.160Z,98092.41
2022-08-30T17:44:20.430Z,98093.53
2022-08-30T17:47:23.718Z,98090.50
2022-08-30T17:50:28.042Z,98096.31
2022-08-30T17:53:33.031Z,98109.09
2022-08-30T17:56:36.997Z,98113.31
2022-08-30T17:59:40.554Z,98121.97
2022-08-30T18:02:44.021Z,98110.16
2022-08-30T18:05:47.248Z,98094.59
2022-08-30T18:08:53.269Z,98111.16
2022-08-30T18:11:59.264Z,98100.84
2022-08-30T18:15:12.554Z,98123.13
2022-08-30T18:18:18.979Z,98135.50
2022-08-30T18:21:23.007Z,98103.16
2022-08-30T18:24:37.124Z,98136.88
2022-08-30T18:27:43.685Z,98142.59
2022-08-30T18:31:09.448Z,98138.38
2022-08-30T18:34:47.188Z,98124.63
2022-08-30T18:38:05.377Z,98108.00
2022-08-30T18:41:27.393Z,98154.31
2022-08-30T18:44:33.665Z,98151.63
2022-08-30T18:47:42.233Z,98150.94
2022-08-30T18:51:01.854Z,98145.00
2022-08-30T18:54:06.122Z,98141.09
2022-08-30T18:57:10.957Z,98085.53
2022-08-30T19:00:27.012Z,98169.69
2022-08-30T19:03:32.954Z,98165.75
2022-08-30T19:07:45.374Z,98169.53
2022-08-30T19:10:51.722Z,98165.91
2022-08-30T19:13:56.677Z,98170.06
2022-08-30T19:17:04.608Z,98170.06
2022-08-30T19:20:11.359Z,98170.50
2022-08-30T19:23:14.763Z,98179.25
2022-08-30T19:26:18.089Z,98174.94
2022-08-30T19:29:22.723Z,98186.88
2022-08-30T19:32:28.014Z,98189.53
2022-08-30T19:35:31.804Z,98192.25
2022-08-30T19:38:36.139Z,98198.28
2022-08-30T19:41:39.398Z,98193.53
2022-08-30T19:44:44.149Z,98202.25
2022-08-30T19:47:48.439Z,98200.47
2022-08-30T19:50:51.881Z,98186.75
2022-08-30T19:53:59.072Z,98198.91
2022-08-30T19:57:02.390Z,98199.59
2022-08-30T20:00:09.056Z,98201.53
2022-08-30T20:03:19.434Z,98192.44
2022-08-30T20:06:22.722Z,98188.94
2022-08-30T20:09:26.027Z,98193.47
2022-08-30T20:12:29.163Z,98202.16
2022-08-30T20:15:33.902Z,98196.66
2022-08-30T20:18:37.612Z,98173.28
2022-08-30T20:21:40.932Z,98194.44
2022-08-30T20:24:45.049Z,98181.19
2022-08-30T20:27:50.708Z,98203.00
2022-08-30T20:30:58.416Z,98199.56
2022-08-30T20:34:02.037Z,98208.09
2022-08-30T20:37:08.171Z,98211.84
2022-08-30T20:40:15.995Z,98213.31
2022-08-30T20:43:20.151Z,98204.53
2022-08-30T20:46:33.404Z,98208.78
2022-08-30T20:49:37.406Z,98204.00
2022-08-30T20:52:45.147Z,98202.22
2022-08-30T20:55:48.781Z,98211.75
2022-08-30T20:58:52.291Z,98209.59
2022-08-30T21:01:58.370Z,98214.28
2022-08-30T21:05:03.136Z,98208.63
2022-08-30T21:08:10.129Z,98206.50
2022-08-30T21:11:13.603Z,98205.56
2022-08-30T21:14:16.864Z,98206.25
2022-08-30T21:17:21.445Z,98210.06
2022-08-30T21:20:24.699Z,98217.19
2022-08-30T21:23:28.173Z,98220.06
2022-08-30T21:26:36.148Z,98225.63
2022-08-30T21:29:39.442Z,98218.44
2022-08-30T21:34:25.102Z,98223.31
2022-08-30T21:37:27.311Z,98229.41
2022-08-30T21:40:30.695Z,98187.91
2022-08-30T21:43:33.894Z,98205.31
2022-08-30T21:46:38.139Z,98231.31
2022-08-30T21:49:42.735Z,98231.28
2022-08-30T21:52:46.125Z,98242.03
2022-08-30T21:55:49.358Z,98240.00
2022-08-30T21:58:56.527Z,98248.34
2022-08-30T22:02:00.110Z,98243.22
2022-08-30T22:05:05.085Z,98236.78
2022-08-30T22:08:08.568Z,98236.38
2022-08-30T22:11:14.950Z,98242.63
2022-08-30T22:14:19.172Z,98202.25
2022-08-30T22:17:22.572Z,98242.88
2022-08-30T22:20:27.576Z,98242.63
2022-08-30T22:23:34.371Z,98241.03
2022-08-30T22:26:38.014Z,98232.09
2022-08-30T22:29:41.398Z,98236.50
2022-08-30T22:32:44.798Z,98245.84
2022-08-30T22:35:49.412Z,98237.69
2022-08-30T22:38:53.448Z,98221.81
2022-08-30T22:41:56.919Z,98235.38
2022-08-30T22:45:00.086Z,98235.63
2022-08-30T22:48:03.672Z,98236.44
2022-08-30T22:51:09.946Z,98237.28
2022-08-30T22:54:13.313Z,98239.00
2022-08-30T22:57:19.364Z,98243.41
2022-08-30T23:00:23.458Z,98227.28
2022-08-30T23:03:28.846Z,98244.84
2022-08-30T23:06:33.816Z,98257.63
2022-08-30T23:09:37.110Z,98171.28
2022-08-30T23:12:40.540Z,98246.34
2022-08-30T23:15:43.767Z,98243.41
2022-08-30T23:18:47.395Z,98243.78
2022-08-30T23:21:52.120Z,98246.13
2022-08-30T23:25:16.088Z,98248.00
2022-08-30T23:28:38.892Z,98246.97
2022-08-30T23:31:59.729Z,98249.06
2022-08-30T23:35:20.766Z,98253.66
2022-08-30T23:38:49.020Z,98249.16
2022-08-30T23:42:09.864Z,98255.31
2022-08-30T23:45:30.645Z,98245.28
2022-08-30T23:48:52.345Z,98239.13
2022-08-30T23:52:13.333Z,98251.75
2022-08-30T23:55:35.767Z,98243.59
2022-08-30T23:58:56.521Z,98238.47
